In Rescue
 
Open Full Screen Window  High Contrast Mode
July 13, 2020 11:10 PM EDT
Weather Information
Wind Direction
  ---
Wind Speed
  00 kt (0 mph)
Wind Gust
  00 kt (0 mph)
Altimeter
30.01 in
Visibility
10 SM
Temperature
17° C
63° F
Dewpoint
16° C
61° F
Humidity
94%
1hr Rain Fall
00.00 in.
24hr Rain Fall
00.00 in.
Sky Condition
Clear
VFR

METAR KRMY 140310Z AUTO 00000KT 10SM CLR 17/16 A3001 RMK AO2 T01720157

FAA Disclaimer: The data displayed is for advisory purposes only and is not to be used for flight planning or operations.